Time;durP1;ratioP1;P1;durP2;ratioP2;P2;SDS_P1;SDS_P2;PMS_P1;PMS_P2;Temp;Humidity;BMP_temperature;BMP_pressure;BME280_temperature;BME280_humidity;BME280_pressure;Samples;Min_cycle;Max_cycle;Signal;HPM_P1;HPM_P2
2022/06/27 00:01:54;;;;;;;3.73;0.97;;;;;;;16.65;100.00;98677.97;5055673;28;20190;-49
2022/06/27 00:04:22;;;;;;;3.67;0.67;;;;;;;16.74;100.00;98687.38;5056721;28;20191;-49
2022/06/27 00:06:49;;;;;;;2.40;0.80;;;;;;;16.85;100.00;98662.34;5058321;28;20290;-50
2022/06/27 00:09:16;;;;;;;1.73;0.70;;;;;;;16.90;100.00;98624.84;5059940;28;20207;-49
2022/06/27 00:11:43;;;;;;;2.07;0.70;;;;;;;16.86;100.00;98584.88;5057639;28;20685;-49
2022/06/27 00:14:29;;;;;;;4.40;0.70;;;;;;;16.78;100.00;98490.94;5058109;28;20295;-49
2022/06/27 00:16:56;;;;;;;2.50;0.50;;;;;;;16.67;100.00;98459.84;5060483;28;20210;-49
2022/06/27 00:19:24;;;;;;;2.70;0.80;;;;;;;16.62;100.00;98425.38;5053994;28;20196;-50
2022/06/27 00:21:51;;;;;;;3.33;0.63;;;;;;;16.65;100.00;98361.75;5051408;28;20277;-49
2022/06/27 00:24:18;;;;;;;4.07;0.53;;;;;;;16.64;100.00;98276.63;5053455;28;20225;-49
2022/06/27 00:26:45;;;;;;;3.27;0.80;;;;;;;16.62;100.00;98206.66;5034747;28;20215;-50
2022/06/27 00:29:12;;;;;;;2.97;0.63;;;;;;;16.70;100.00;98192.50;5039566;28;20196;-49
2022/06/27 00:31:39;;;;;;;1.87;0.70;;;;;;;16.64;100.00;98202.00;5046404;28;20192;-49
2022/06/27 00:34:08;;;;;;;1.20;0.70;;;;;;;16.74;100.00;98222.72;5054189;28;20181;-49
2022/06/27 00:36:36;;;;;;;1.53;0.73;;;;;;;16.67;100.00;98238.50;5036757;28;20211;-49
2022/06/27 00:39:03;;;;;;;3.60;0.80;;;;;;;16.66;100.00;98268.50;5055925;28;20591;-49
2022/06/27 00:41:30;;;;;;;2.83;0.60;;;;;;;16.67;100.00;98284.13;5040277;28;20771;-49
2022/06/27 00:43:58;;;;;;;2.27;0.70;;;;;;;16.61;100.00;98319.16;5017307;28;20188;-49
2022/06/27 00:46:24;;;;;;;1.97;0.60;;;;;;;16.56;100.00;98362.91;5016917;28;20212;-48
2022/06/27 00:48:51;;;;;;;4.20;0.70;;;;;;;16.55;100.00;98395.53;5017415;28;20196;-49
2022/06/27 00:51:19;;;;;;;1.70;0.70;;;;;;;16.63;100.00;98393.56;5033086;28;20200;-49
2022/06/27 00:53:47;;;;;;;0.60;0.50;;;;;;;16.58;100.00;98393.34;5037009;28;20249;-49
2022/06/27 00:56:14;;;;;;;1.13;0.67;;;;;;;16.73;100.00;98424.03;5036456;28;20216;-49
2022/06/27 00:58:41;;;;;;;2.27;0.67;;;;;;;16.87;100.00;98430.97;5042687;28;20201;-48
2022/06/27 01:01:09;;;;;;;3.23;0.83;;;;;;;16.85;100.00;98443.53;5049168;28;20191;-48
2022/06/27 01:03:36;;;;;;;1.57;1.03;;;;;;;16.81;100.00;98440.47;5070009;28;20209;-49
2022/06/27 01:06:04;;;;;;;2.10;0.90;;;;;;;16.77;100.00;98448.97;5036348;28;20275;-49
2022/06/27 01:08:31;;;;;;;0.80;0.60;;;;;;;16.61;100.00;98464.09;5031051;28;20206;-49
2022/06/27 01:11:00;;;;;;;3.50;1.30;;;;;;;16.70;100.00;98474.50;5029871;28;20284;-49
2022/06/27 01:13:27;;;;;;;1.03;0.90;;;;;;;16.60;100.00;98477.44;5046461;28;20278;-49
2022/06/27 01:15:55;;;;;;;1.23;0.93;;;;;;;16.57;100.00;98497.13;5054505;28;20298;-49
2022/06/27 01:18:22;;;;;;;3.07;1.20;;;;;;;16.63;100.00;98506.06;5054624;28;20187;-49
2022/06/27 01:20:49;;;;;;;2.33;1.43;;;;;;;16.72;100.00;98517.28;5036651;28;20211;-49
2022/06/27 01:23:18;;;;;;;2.17;1.10;;;;;;;16.70;100.00;98499.00;5038436;28;20194;-49
2022/06/27 01:25:45;;;;;;;2.30;1.53;;;;;;;16.68;100.00;98501.84;5036483;28;20651;-49
2022/06/27 01:28:13;;;;;;;1.90;1.57;;;;;;;16.64;100.00;98507.69;5052874;28;20771;-49
2022/06/27 01:30:40;;;;;;;3.17;1.60;;;;;;;16.59;100.00;98518.81;5053139;28;20552;-49
2022/06/27 01:33:07;;;;;;;2.27;1.40;;;;;;;16.62;100.00;98501.78;5053055;28;20204;-50
2022/06/27 01:35:38;;;;;;;1.67;1.30;;;;;;;16.63;100.00;98491.06;5036271;28;20208;-49
2022/06/27 01:38:06;;;;;;;2.10;1.63;;;;;;;16.58;100.00;98495.28;5052691;28;20239;-49
2022/06/27 01:40:34;;;;;;;2.23;1.30;;;;;;;16.52;100.00;98507.41;5036246;28;20692;-49
2022/06/27 01:43:02;;;;;;;2.20;1.30;;;;;;;16.51;100.00;98489.97;5052867;28;20188;-49
2022/06/27 01:45:30;;;;;;;2.00;1.60;;;;;;;16.50;100.00;98475.19;5052371;28;20576;-49
2022/06/27 01:47:57;;;;;;;4.00;1.30;;;;;;;16.50;100.00;98454.09;5055862;28;20231;-49
2022/06/27 01:50:30;;;;;;;2.00;1.10;;;;;;;16.52;100.00;98463.44;5056010;28;20221;-50
2022/06/27 01:53:00;;;;;;;1.63;1.37;;;;;;;16.46;100.00;98473.94;5056011;28;20760;-49
2022/06/27 01:55:27;;;;;;;5.60;1.30;;;;;;;16.53;100.00;98467.69;5052560;28;20238;-49
2022/06/27 01:57:56;;;;;;;3.53;1.27;;;;;;;16.59;100.00;98452.94;5053769;28;20203;-49
2022/06/27 02:00:24;;;;;;;1.10;0.97;;;;;;;16.52;100.00;98446.81;5052549;28;20188;-49
2022/06/27 02:03:01;;;;;;;1.83;0.93;;;;;;;16.51;100.00;98448.63;5053905;28;20237;-51
2022/06/27 02:05:38;;;;;;;3.37;1.13;;;;;;;16.51;100.00;98438.09;5052514;28;20202;-49
2022/06/27 02:08:06;;;;;;;7.10;2.30;;;;;;;16.53;100.00;98414.19;5051901;28;20689;-49
2022/06/27 02:10:33;;;;;;;1.30;0.73;;;;;;;16.48;100.00;98396.31;5052372;28;20188;-49
2022/06/27 02:13:03;;;;;;;2.53;0.80;;;;;;;16.47;100.00;98393.88;5035823;28;20208;-49
2022/06/27 02:15:31;;;;;;;2.37;0.90;;;;;;;16.46;100.00;98413.34;5052111;28;20212;-49
2022/06/27 02:17:58;;;;;;;3.07;0.97;;;;;;;16.47;100.00;98417.59;5051824;28;20211;-49
2022/06/27 02:20:27;;;;;;;2.10;0.97;;;;;;;16.43;100.00;98434.81;5059648;28;20211;-49
2022/06/27 02:22:54;;;;;;;5.63;1.20;;;;;;;16.39;100.00;98442.28;5055380;28;20195;-49
2022/06/27 02:25:22;;;;;;;1.43;0.87;;;;;;;16.35;100.00;98439.22;5055472;28;20683;-49
2022/06/27 02:27:54;;;;;;;2.13;1.07;;;;;;;16.35;100.00;98417.34;5055010;28;20261;-49
2022/06/27 02:30:23;;;;;;;1.50;1.03;;;;;;;16.27;100.00;98410.38;5055334;28;20273;-49
2022/06/27 02:32:50;;;;;;;2.77;0.97;;;;;;;16.18;100.00;98415.00;5051861;28;20188;-51
2022/06/27 02:35:19;;;;;;;2.63;0.80;;;;;;;16.15;100.00;98433.81;5052000;28;20722;-49
2022/06/27 02:37:46;;;;;;;6.53;0.77;;;;;;;16.15;100.00;98438.25;5051632;28;20692;-49
2022/06/27 02:40:14;;;;;;;2.30;1.00;;;;;;;16.09;100.00;98430.13;5051769;28;20207;-49
2022/06/27 02:42:42;;;;;;;3.50;1.03;;;;;;;16.07;100.00;98442.66;5051823;28;20568;-49
2022/06/27 02:45:11;;;;;;;0.90;0.70;;;;;;;16.04;100.00;98436.97;5051932;28;20664;-49
2022/06/27 02:47:42;;;;;;;2.83;0.90;;;;;;;16.01;100.00;98424.19;5052106;28;20243;-49
2022/06/27 02:50:11;;;;;;;3.27;0.90;;;;;;;15.94;100.00;98400.44;5053611;28;20673;-49
2022/06/27 02:52:45;;;;;;;2.70;0.80;;;;;;;15.91;100.00;98379.75;5053605;28;20223;-49
2022/06/27 02:55:17;;;;;;;3.83;1.13;;;;;;;15.86;100.00;98385.56;5051696;28;20191;-49
2022/06/27 02:57:51;;;;;;;7.97;1.10;;;;;;;15.84;100.00;98406.00;5048861;28;20297;-49
2022/06/27 03:00:19;;;;;;;1.60;0.93;;;;;;;15.82;100.00;98415.13;5038457;28;20195;-52
2022/06/27 03:02:47;;;;;;;3.53;1.57;;;;;;;15.77;100.00;98424.38;5034991;28;20191;-51
2022/06/27 03:05:14;;;;;;;1.60;1.10;;;;;;;15.75;100.00;98423.75;5052783;28;20187;-52
2022/06/27 03:07:42;;;;;;;1.67;1.00;;;;;;;15.78;100.00;98419.94;5034191;28;20216;-52
2022/06/27 03:10:11;;;;;;;1.73;1.10;;;;;;;15.73;100.00;98422.31;5034619;28;20198;-52
2022/06/27 03:12:40;;;;;;;1.70;0.90;;;;;;;15.72;100.00;98421.50;5036571;28;20184;-51
2022/06/27 03:15:09;;;;;;;5.83;1.10;;;;;;;15.63;100.00;98402.41;5072853;28;20316;-49
2022/06/27 03:17:37;;;;;;;1.80;0.93;;;;;;;15.60;100.00;98394.88;5054173;28;20218;-49
2022/06/27 03:20:25;;;;;;;2.20;0.90;;;;;;;15.59;100.00;98410.88;5072433;28;20226;-49
2022/06/27 03:23:16;;;;;;;1.20;1.10;;;;;;;15.62;100.00;98418.38;5073386;28;20187;-52
2022/06/27 03:25:47;;;;;;;2.93;1.00;;;;;;;15.60;100.00;98415.13;5055796;28;20187;-52
2022/06/27 03:28:15;;;;;;;3.20;1.00;;;;;;;15.55;100.00;98418.31;5054855;28;20244;-52
2022/06/27 03:30:44;;;;;;;2.27;1.00;;;;;;;15.52;100.00;98421.31;5054630;28;20197;-51
2022/06/27 03:33:11;;;;;;;1.70;0.83;;;;;;;15.58;100.00;98435.53;5054661;28;20190;-50
2022/06/27 03:35:49;;;;;;;5.33;0.90;;;;;;;15.59;100.00;98431.91;5054573;28;20210;-51
2022/06/27 03:38:18;;;;;;;1.73;0.83;;;;;;;15.64;100.00;98417.19;5052218;28;20191;-50
2022/06/27 03:40:45;;;;;;;2.07;0.80;;;;;;;15.65;100.00;98410.13;5072490;28;20221;-50
2022/06/27 03:43:13;;;;;;;4.30;0.83;;;;;;;15.70;100.00;98407.72;5054505;28;20248;-52
2022/06/27 03:45:40;;;;;;;3.13;1.10;;;;;;;15.76;100.00;98399.06;5054628;28;20194;-48
2022/06/27 03:48:09;;;;;;;2.47;1.57;;;;;;;15.81;100.00;98392.44;5053791;28;20215;-49
2022/06/27 03:51:03;;;;;;;8.80;1.23;;;;;;;15.84;100.00;98397.31;5071489;28;20217;-49
2022/06/27 03:53:30;;;;;;;3.33;1.13;;;;;;;15.88;100.00;98393.34;5072137;28;20217;-48
2022/06/27 03:55:59;;;;;;;1.60;1.00;;;;;;;15.91;100.00;98406.06;5053667;28;20294;-48
2022/06/27 03:58:26;;;;;;;5.87;1.20;;;;;;;15.89;100.00;98403.66;5053926;28;20187;-48
2022/06/27 04:00:53;;;;;;;1.87;0.80;;;;;;;15.94;100.00;98395.16;5054029;28;20252;-49
2022/06/27 04:03:20;;;;;;;3.17;0.90;;;;;;;15.97;100.00;98407.94;5054019;28;20654;-49
2022/06/27 04:05:50;;;;;;;4.90;1.20;;;;;;;15.94;100.00;98432.84;5053814;28;20209;-48
2022/06/27 04:08:19;;;;;;;3.50;0.90;;;;;;;16.04;100.00;98437.78;5055254;28;20274;-49
2022/06/27 04:10:46;;;;;;;4.57;1.10;;;;;;;16.06;100.00;98433.13;5057832;28;20186;-49
2022/06/27 04:13:17;;;;;;;1.13;1.03;;;;;;;16.13;100.00;98430.56;5056340;28;20190;-49
2022/06/27 04:15:59;;;;;;;2.03;0.90;;;;;;;16.14;100.00;98426.09;5063894;28;20206;-49
2022/06/27 04:18:45;;;;;;;3.83;0.63;;;;;;;16.16;100.00;98459.16;5069635;28;20268;-49
2022/06/27 04:21:32;;;;;;;1.53;1.10;;;;;;;16.24;100.00;98505.59;5075840;28;20606;-49
2022/06/27 04:24:11;;;;;;;4.77;1.10;;;;;;;16.27;100.00;98499.13;5054654;28;20204;-49
2022/06/27 04:26:53;;;;;;;2.10;1.00;;;;;;;16.30;100.00;98506.66;5054022;28;20265;-49
2022/06/27 04:29:21;;;;;;;3.07;1.40;;;;;;;16.35;100.00;98512.97;5054169;28;20189;-49
2022/06/27 04:31:49;;;;;;;3.13;1.23;;;;;;;16.39;100.00;98502.88;5054167;28;20188;-49
2022/06/27 04:34:17;;;;;;;3.73;1.50;;;;;;;16.44;100.00;98471.47;5054153;28;20211;-48
2022/06/27 04:36:46;;;;;;;4.13;1.70;;;;;;;16.53;100.00;98474.78;5053787;28;20216;-49
2022/06/27 04:39:20;;;;;;;1.73;1.50;;;;;;;16.50;100.00;98481.25;5053735;28;20537;-49
2022/06/27 04:41:56;;;;;;;1.93;1.53;;;;;;;16.53;100.00;98495.88;5056204;28;20705;-48
2022/06/27 04:44:23;;;;;;;3.43;1.63;;;;;;;16.59;100.00;98523.25;5037459;28;20278;-49
2022/06/27 04:46:51;;;;;;;4.10;1.70;;;;;;;16.64;100.00;98541.94;5053631;28;20672;-49
2022/06/27 04:49:30;;;;;;;3.73;1.93;;;;;;;16.65;100.00;98531.22;5037053;28;20196;-49
2022/06/27 04:51:59;;;;;;;1.93;1.53;;;;;;;16.71;100.00;98531.47;5040637;28;20212;-49
2022/06/27 04:54:27;;;;;;;2.33;2.00;;;;;;;16.71;100.00;98526.19;5055514;28;20184;-49
2022/06/27 04:56:55;;;;;;;1.40;1.30;;;;;;;16.70;100.00;98512.19;5064749;28;20219;-48
2022/06/27 04:59:23;;;;;;;1.77;1.50;;;;;;;16.75;100.00;98533.50;5057018;28;20190;-49
2022/06/27 05:02:00;;;;;;;1.40;1.27;;;;;;;16.77;100.00;98528.06;5050699;28;20295;-49
2022/06/27 05:04:29;;;;;;;1.53;1.40;;;;;;;16.77;100.00;98526.22;5036912;28;20223;-49
2022/06/27 05:06:56;;;;;;;1.87;1.00;;;;;;;16.79;100.00;98526.84;5036596;28;20306;-50
2022/06/27 05:09:25;;;;;;;2.60;1.20;;;;;;;16.84;100.00;98531.53;5054993;28;20189;-49
2022/06/27 05:11:54;;;;;;;3.00;1.07;;;;;;;16.85;100.00;98543.72;5036842;28;20187;-49
2022/06/27 05:14:24;;;;;;;2.17;0.87;;;;;;;16.86;100.00;98544.53;5036774;28;20249;-48
2022/06/27 05:17:09;;;;;;;1.33;0.90;;;;;;;16.90;100.00;98554.50;5054516;28;20250;-49
2022/06/27 05:19:37;;;;;;;1.27;1.00;;;;;;;16.95;100.00;98575.81;5035742;28;20280;-49
2022/06/27 05:22:05;;;;;;;1.63;1.00;;;;;;;17.02;100.00;98594.34;5036722;28;20188;-49
2022/06/27 05:24:33;;;;;;;1.77;1.17;;;;;;;17.06;100.00;98592.13;5032705;28;20197;-49
2022/06/27 05:27:01;;;;;;;3.23;1.00;;;;;;;17.09;100.00;98591.72;5052614;28;20236;-50
2022/06/27 05:29:29;;;;;;;1.37;0.97;;;;;;;17.03;100.00;98603.06;5036574;28;20201;-48
2022/06/27 05:32:14;;;;;;;2.50;1.20;;;;;;;17.03;100.00;98587.22;5062017;28;20196;-49
2022/06/27 05:34:42;;;;;;;5.17;1.33;;;;;;;17.03;100.00;98568.78;5057305;28;20188;-49
2022/06/27 05:37:10;;;;;;;3.90;1.43;;;;;;;17.01;100.00;98561.06;5052697;28;20215;-48
2022/06/27 05:39:40;;;;;;;2.40;1.13;;;;;;;17.04;100.00;98551.94;5036148;28;20206;-49
2022/06/27 05:42:09;;;;;;;1.40;0.80;;;;;;;17.04;100.00;98580.94;5036464;28;20709;-49
2022/06/27 05:44:36;;;;;;;1.33;0.90;;;;;;;17.07;100.00;98586.66;5040394;28;20189;-49
2022/06/27 05:47:04;;;;;;;1.07;0.80;;;;;;;17.13;100.00;98563.97;5035895;28;20209;-49
2022/06/27 05:49:34;;;;;;;2.20;1.00;;;;;;;17.16;100.00;98573.31;5054117;28;20191;-49
2022/06/27 05:52:03;;;;;;;1.40;1.03;;;;;;;17.17;100.00;98590.78;5052620;28;20648;-48
2022/06/27 05:54:31;;;;;;;1.03;0.90;;;;;;;17.25;100.00;98615.16;5054424;28;20188;-49
2022/06/27 05:56:59;;;;;;;4.20;0.97;;;;;;;17.35;100.00;98627.19;5052127;28;20220;-49
2022/06/27 05:59:28;;;;;;;1.60;0.93;;;;;;;17.39;100.00;98623.16;5060176;28;20191;-49
2022/06/27 06:02:00;;;;;;;2.80;0.60;;;;;;;17.45;100.00;98598.63;5055889;28;20194;-50
2022/06/27 06:04:32;;;;;;;0.60;0.50;;;;;;;17.48;100.00;98600.06;5056005;28;20601;-49
2022/06/27 06:07:00;;;;;;;2.60;0.60;;;;;;;17.52;100.00;98582.81;5055202;28;20597;-49
2022/06/27 06:09:28;;;;;;;0.60;0.40;;;;;;;17.59;100.00;98574.94;5055927;28;20216;-49
2022/06/27 06:11:56;;;;;;;0.50;0.43;;;;;;;17.65;100.00;98574.13;5055682;28;20189;-49
2022/06/27 06:14:28;;;;;;;0.77;0.30;;;;;;;17.65;100.00;98588.13;5053889;28;20195;-49
2022/06/27 06:16:56;;;;;;;1.73;0.60;;;;;;;17.65;100.00;98598.69;5052802;28;20211;-49
2022/06/27 06:19:23;;;;;;;2.70;0.50;;;;;;;17.72;100.00;98596.09;5055845;28;20587;-49
2022/06/27 06:21:51;;;;;;;2.00;0.43;;;;;;;17.78;100.00;98594.47;5055511;28;20199;-49
2022/06/27 06:24:17;;;;;;;0.40;0.40;;;;;;;17.86;100.00;98596.94;5055641;28;20217;-49
2022/06/27 06:26:46;;;;;;;0.50;0.40;;;;;;;17.92;100.00;98611.19;5055083;28;20203;-48
2022/06/27 06:29:14;;;;;;;0.90;0.60;;;;;;;17.80;100.00;98619.69;5055406;28;20202;-49
2022/06/27 06:31:50;;;;;;;0.67;0.60;;;;;;;17.87;100.00;98624.97;5055064;28;20207;-49
2022/06/27 06:34:17;;;;;;;0.57;0.50;;;;;;;17.81;100.00;98616.03;5051781;28;20189;-49
2022/06/27 06:36:46;;;;;;;1.33;0.90;;;;;;;17.77;100.00;98633.28;5051445;28;20262;-50
2022/06/27 06:39:14;;;;;;;1.67;0.90;;;;;;;17.70;100.00;98624.50;5051757;28;20205;-50
2022/06/27 06:41:41;;;;;;;1.93;1.03;;;;;;;17.67;100.00;98622.28;5053224;28;20189;-49
2022/06/27 06:44:10;;;;;;;1.67;1.30;;;;;;;17.55;100.00;98617.53;5051704;28;20225;-49
2022/06/27 06:46:52;;;;;;;1.40;1.27;;;;;;;17.46;100.00;98615.28;5052743;28;20206;-49
2022/06/27 06:49:40;;;;;;;3.87;1.50;;;;;;;17.56;100.00;98613.91;5051759;28;20197;-49
2022/06/27 06:52:09;;;;;;;2.20;1.50;;;;;;;17.65;100.00;98622.44;5061348;28;20235;-49
2022/06/27 06:54:36;;;;;;;1.70;1.10;;;;;;;17.63;100.00;98613.13;5056674;28;20198;-50
2022/06/27 06:57:04;;;;;;;1.03;0.93;;;;;;;17.58;100.00;98611.06;5052688;28;20290;-49
2022/06/27 06:59:31;;;;;;;1.30;1.20;;;;;;;17.62;100.00;98614.91;5052927;28;20276;-49
2022/06/27 07:01:59;;;;;;;1.73;1.13;;;;;;;17.63;100.00;98613.13;5051378;28;20205;-50
2022/06/27 07:04:26;;;;;;;2.13;1.50;;;;;;;17.66;100.00;98628.56;5052915;28;20188;-49
2022/06/27 07:06:55;;;;;;;2.60;1.30;;;;;;;17.73;100.00;98650.53;5052484;28;20199;-49
2022/06/27 07:09:24;;;;;;;2.33;1.20;;;;;;;17.77;100.00;98667.59;5051222;28;20206;-50
2022/06/27 07:11:51;;;;;;;1.37;1.00;;;;;;;17.85;100.00;98667.44;5069964;28;20199;-49
2022/06/27 07:14:19;;;;;;;4.40;1.90;;;;;;;17.74;100.00;98680.34;5072600;28;20200;-49
2022/06/27 07:16:46;;;;;;;3.53;1.70;;;;;;;17.75;100.00;98682.81;5072219;28;20205;-49
2022/06/27 07:19:16;;;;;;;4.50;2.60;;;;;;;17.80;100.00;98683.03;5054572;28;20649;-49
2022/06/27 07:21:42;;;;;;;3.00;2.80;;;;;;;17.85;100.00;98691.19;5072504;28;20180;-49
2022/06/27 07:24:10;;;;;;;3.63;3.17;;;;;;;18.03;100.00;98689.84;5072558;28;20192;-50
2022/06/27 07:26:37;;;;;;;13.57;6.70;;;;;;;17.98;100.00;98697.53;5072195;28;20214;-49
2022/06/27 07:29:05;;;;;;;4.83;4.40;;;;;;;17.91;100.00;98705.41;5072756;28;20267;-49
2022/06/27 07:31:32;;;;;;;6.43;4.37;;;;;;;17.83;100.00;98701.13;5072452;28;20234;-50
2022/06/27 07:34:01;;;;;;;30.97;20.23;;;;;;;17.73;100.00;98698.03;5052648;28;20250;-50
2022/06/27 07:36:32;;;;;;;12.10;9.03;;;;;;;17.69;100.00;98689.69;5058076;28;20239;-49
2022/06/27 07:38:59;;;;;;;7.57;5.40;;;;;;;17.64;100.00;98686.81;5052258;28;20307;-50
2022/06/27 07:41:30;;;;;;;9.27;5.40;;;;;;;17.64;100.00;98673.63;5052337;28;20205;-49
2022/06/27 07:43:57;;;;;;;6.27;4.40;;;;;;;17.66;100.00;98673.44;5054632;28;20195;-49
2022/06/27 07:46:25;;;;;;;5.60;5.07;;;;;;;17.62;100.00;98654.50;5071936;28;20208;-49
2022/06/27 07:48:52;;;;;;;5.80;5.20;;;;;;;17.67;100.00;98661.88;5072229;28;20187;-50
2022/06/27 07:51:20;;;;;;;6.80;5.23;;;;;;;17.77;100.00;98664.97;5072379;28;20211;-50
2022/06/27 07:53:51;;;;;;;6.63;5.70;;;;;;;17.87;100.00;98655.84;5054209;28;20292;-49
2022/06/27 07:56:22;;;;;;;5.73;5.13;;;;;;;18.00;100.00;98664.66;5050172;28;20217;-49
2022/06/27 07:58:50;;;;;;;6.63;4.43;;;;;;;18.20;100.00;98665.72;5047499;28;20620;-50
2022/06/27 08:01:19;;;;;;;6.40;5.03;;;;;;;18.43;100.00;98671.47;5046265;28;20295;-50
2022/06/27 08:03:49;;;;;;;6.27;4.93;;;;;;;18.66;100.00;98680.84;5045467;28;20199;-49
2022/06/27 08:06:20;;;;;;;5.20;3.40;;;;;;;19.01;100.00;98685.97;5021649;28;20214;-49
2022/06/27 08:08:51;;;;;;;5.47;4.00;;;;;;;19.22;100.00;98683.31;5045538;28;20193;-49
2022/06/27 08:11:22;;;;;;;4.77;4.23;;;;;;;19.38;100.00;98703.22;5046087;28;20271;-49
2022/06/27 08:13:51;;;;;;;8.37;4.10;;;;;;;19.36;100.00;98716.69;5028006;28;20289;-50
2022/06/27 08:16:20;;;;;;;4.00;3.60;;;;;;;19.29;100.00;98711.38;5043939;28;20215;-49
2022/06/27 08:18:48;;;;;;;5.13;4.00;;;;;;;19.33;100.00;98722.38;5027434;28;20267;-49
2022/06/27 08:21:18;;;;;;;7.57;3.27;;;;;;;19.45;100.00;98718.09;5044640;28;20271;-49
2022/06/27 08:23:46;;;;;;;8.43;4.00;;;;;;;19.51;100.00;98699.75;5048509;28;20270;-49
2022/06/27 08:26:14;;;;;;;4.47;3.30;;;;;;;19.55;100.00;98700.97;5045733;28;20201;-50
2022/06/27 08:28:43;;;;;;;5.63;3.03;;;;;;;19.42;100.00;98699.97;5026782;28;20256;-49
2022/06/27 08:31:13;;;;;;;3.80;3.40;;;;;;;19.57;100.00;98683.84;5048712;28;20523;-49
2022/06/27 08:33:43;;;;;;;6.13;3.40;;;;;;;19.90;100.00;98690.91;5033687;28;20199;-50
2022/06/27 08:36:12;;;;;;;3.70;3.40;;;;;;;20.07;100.00;98698.38;5051408;28;20709;-49
2022/06/27 08:38:46;;;;;;;4.03;3.40;;;;;;;19.90;100.00;98701.50;5051491;28;20366;-49
2022/06/27 08:41:15;;;;;;;5.03;3.27;;;;;;;19.77;100.00;98712.91;5051840;28;20237;-49
2022/06/27 08:43:43;;;;;;;5.43;3.07;;;;;;;19.69;100.00;98720.28;5051867;28;20219;-49
2022/06/27 08:46:13;;;;;;;4.57;3.00;;;;;;;19.81;100.00;98723.91;5051528;28;20728;-49
2022/06/27 08:48:42;;;;;;;5.87;3.10;;;;;;;19.62;99.08;98739.63;5051759;28;20214;-49
2022/06/27 08:51:10;;;;;;;3.10;2.40;;;;;;;19.65;97.44;98721.72;5051659;28;20194;-49
2022/06/27 08:53:38;;;;;;;4.57;2.20;;;;;;;19.84;96.36;98725.31;5043072;28;20720;-50
2022/06/27 08:56:08;;;;;;;4.50;2.27;;;;;;;20.02;96.08;98728.13;5035874;28;20206;-49
2022/06/27 08:58:38;;;;;;;2.50;2.10;;;;;;;20.24;92.47;98719.06;5043375;28;20251;-49
2022/06/27 09:01:06;;;;;;;4.70;2.20;;;;;;;20.42;89.12;98724.47;5043271;28;21293;-49
2022/06/27 09:03:33;;;;;;;3.33;2.17;;;;;;;20.81;86.69;98726.31;5053045;28;20205;-49
2022/06/27 09:06:02;;;;;;;2.47;2.13;;;;;;;20.93;81.75;98722.72;5034062;28;20205;-52
2022/06/27 09:08:31;;;;;;;2.20;2.00;;;;;;;21.14;84.09;98718.06;5052667;28;20186;-49
2022/06/27 09:10:59;;;;;;;2.53;2.33;;;;;;;21.67;83.18;98719.44;5054339;28;20184;-49
2022/06/27 09:13:28;;;;;;;2.33;2.13;;;;;;;21.76;81.47;98735.88;5054302;28;20192;-49
2022/06/27 09:15:59;;;;;;;3.27;2.83;;;;;;;21.63;84.54;98730.72;5054262;28;20198;-49
2022/06/27 09:18:28;;;;;;;2.70;2.50;;;;;;;22.14;84.35;98742.00;5054222;28;20259;-49
2022/06/27 09:20:59;;;;;;;4.10;2.47;;;;;;;22.48;82.34;98745.03;5036747;28;20199;-50
2022/06/27 09:23:32;;;;;;;3.60;2.43;;;;;;;22.50;79.85;98748.28;5054226;28;20277;-50
2022/06/27 09:26:03;;;;;;;3.97;2.67;;;;;;;22.53;77.04;98755.03;5054317;28;20645;-49
2022/06/27 09:28:39;;;;;;;3.67;2.73;;;;;;;22.55;82.10;98758.28;5054671;28;20179;-50
2022/06/27 09:31:11;;;;;;;3.03;2.37;;;;;;;22.83;79.39;98755.00;5054155;28;20178;-50
2022/06/27 09:33:43;;;;;;;2.60;2.40;;;;;;;23.27;80.24;98764.59;5054343;28;20220;-49
2022/06/27 09:36:15;;;;;;;3.13;2.10;;;;;;;23.24;78.37;98763.19;5053778;28;20182;-50
2022/06/27 09:38:44;;;;;;;3.53;2.10;;;;;;;23.10;78.92;98777.72;5035929;28;20663;-49
2022/06/27 09:41:13;;;;;;;4.30;1.90;;;;;;;22.78;76.82;98793.97;5053799;28;20179;-49
2022/06/27 09:43:44;;;;;;;1.80;1.70;;;;;;;22.46;80.20;98810.94;5053978;28;20204;-50
2022/06/27 09:46:14;;;;;;;2.67;1.83;;;;;;;21.56;83.13;98825.56;5046765;28;20253;-50
2022/06/27 09:48:44;;;;;;;2.37;2.17;;;;;;;21.39;83.63;98831.41;5034101;28;20481;-49
2022/06/27 09:51:32;;;;;;;3.63;2.00;;;;;;;20.75;90.14;98842.81;5040737;28;20199;-49
2022/06/27 09:54:03;;;;;;;2.67;2.13;;;;;;;20.81;89.00;98838.53;5053575;28;20250;-49
2022/06/27 09:56:31;;;;;;;2.37;1.50;;;;;;;20.62;92.54;98822.50;5053333;28;20287;-49
2022/06/27 09:58:58;;;;;;;0.00;0.00;;;;;;;20.53;88.34;98812.31;5035861;28;20224;-49
2022/06/27 10:01:27;;;;;;;0.00;0.00;;;;;;;20.46;89.56;98815.03;5053232;28;20204;-49
2022/06/27 10:03:57;;;;;;;0.00;0.00;;;;;;;20.29;93.59;98826.09;5053595;28;20253;-49
2022/06/27 10:06:26;;;;;;;0.00;0.00;;;;;;;20.83;91.31;98830.38;5052863;28;20287;-53
2022/06/27 10:08:53;;;;;;;0.00;0.00;;;;;;;21.50;90.53;98829.88;5053446;28;20183;-50
2022/06/27 10:11:20;;;;;;;0.00;0.00;;;;;;;22.08;85.40;98843.91;5053351;28;20194;-50
2022/06/27 10:14:11;;;;;;;0.00;0.00;;;;;;;22.09;85.70;98848.19;5053717;28;20185;-51
2022/06/27 10:16:51;;;;;;;0.00;0.00;;;;;;;22.17;83.76;98845.25;5046336;28;20249;-50
2022/06/27 10:19:18;;;;;;;0.00;0.00;;;;;;;21.33;85.96;98841.03;5043758;28;20208;-50
2022/06/27 10:21:47;;;;;;;0.00;0.00;;;;;;;20.93;88.29;98844.78;5042019;28;20249;-49
2022/06/27 10:24:34;;;;;;;0.00;0.00;;;;;;;20.87;90.97;98850.94;5042453;28;20602;-54
2022/06/27 10:27:07;;;;;;;0.00;0.00;;;;;;;20.74;92.63;98849.16;5042700;28;20251;-51
2022/06/27 10:29:44;;;;;;;0.00;0.00;;;;;;;20.45;91.10;98848.66;5042936;28;20559;-52
2022/06/27 10:32:41;;;;;;;0.00;0.00;;;;;;;20.30;94.00;98856.06;5024892;28;20198;-52
2022/06/27 10:35:10;;;;;;;0.00;0.00;;;;;;;20.16;96.51;98855.28;5018130;28;20198;-51
2022/06/27 10:37:40;;;;;;;0.00;0.00;;;;;;;19.96;95.41;98861.44;5047682;28;20212;-55
2022/06/27 10:40:51;;;;;;;0.00;0.00;;;;;;;19.93;98.92;98864.50;5043328;28;20255;-51
2022/06/27 10:43:39;;;;;;;0.00;0.00;;;;;;;19.87;95.78;98858.16;5027657;28;20243;-51
2022/06/27 10:46:52;;;;;;;0.00;0.00;;;;;;;19.86;96.58;98863.66;5041979;28;20753;-51
2022/06/27 10:49:23;;;;;;;0.00;0.00;;;;;;;19.80;96.85;98853.88;5042048;28;20277;-51
2022/06/27 10:51:51;;;;;;;0.00;0.00;;;;;;;19.78;97.17;98856.75;5044718;28;20679;-52
2022/06/27 10:54:18;;;;;;;0.00;0.00;;;;;;;19.45;93.22;98857.56;5040698;28;20221;-51
2022/06/27 10:56:46;;;;;;;0.00;0.00;;;;;;;19.39;96.01;98858.38;5044362;28;20284;-52
2022/06/27 10:59:59;;;;;;;0.00;0.00;;;;;;;19.19;95.77;98851.22;5040983;28;20214;-51
2022/06/27 11:02:31;;;;;;;0.00;0.00;;;;;;;19.17;97.39;98843.50;5044487;28;21233;-50
2022/06/27 11:04:59;;;;;;;0.00;0.00;;;;;;;19.17;97.88;98846.16;5042449;28;20635;-53
2022/06/27 11:07:45;;;;;;;0.00;0.00;;;;;;;19.24;96.78;98861.22;5045606;28;20224;-51
2022/06/27 11:10:12;;;;;;;0.00;0.00;;;;;;;19.36;97.40;98858.78;5040482;28;20219;-51
2022/06/27 11:12:39;;;;;;;0.00;0.00;;;;;;;19.58;95.20;98856.78;5045385;28;20229;-51
2022/06/27 11:15:06;;;;;;;0.00;0.00;;;;;;;19.99;95.97;98850.44;5024988;28;20620;-51
2022/06/27 11:17:39;;;;;;;0.00;0.00;;;;;;;20.33;91.49;98869.72;5037126;28;20217;-52
2022/06/27 11:20:26;;;;;;;0.00;0.00;;;;;;;20.65;88.99;98861.03;5042983;28;20238;-51
2022/06/27 11:22:57;;;;;;;0.00;0.00;;;;;;;21.30;85.28;98852.09;5043313;28;20586;-51
2022/06/27 11:25:27;;;;;;;0.00;0.00;;;;;;;21.86;83.74;98854.94;5043954;28;20356;-51
2022/06/27 11:27:58;;;;;;;0.00;0.00;;;;;;;22.42;82.03;98858.44;5043391;28;20708;-52
2022/06/27 11:33:25;;;;;;;0.00;0.00;;;;;;;22.73;74.89;98865.69;5043719;28;20716;-53
2022/06/27 11:35:55;;;;;;;0.00;0.00;;;;;;;22.75;78.18;98868.94;5050990;28;20296;-51
2022/06/27 11:38:27;;;;;;;0.00;0.00;;;;;;;22.65;74.62;98872.94;5034674;28;20213;-52
2022/06/27 11:41:03;;;;;;;0.00;0.00;;;;;;;22.55;78.48;98864.66;5031118;28;20711;-52
2022/06/27 11:43:47;;;;;;;0.00;0.00;;;;;;;22.64;77.95;98867.81;5031101;28;20213;-51
2022/06/27 11:46:29;;;;;;;0.00;0.00;;;;;;;22.67;75.28;98878.03;5030516;28;20234;-53